aviador You're here:

KPOE Decoded Metar

FORT POLK in LA, USA
Report Time2018-02-19 11:58:00
UTC Time2018-02-19 12:06:33
Flight Rules ifr IFR
Wind170° at 09 kt
W.Decomp.*RWY 16: 8.9 kt HW 1.3 kt RCW
W.Rank170° ranks 2
Current wind is above 170° avg. (7.2)
Visibility9999 m
Phenomena:N/A
Clouds:Overcast 009 Hf
Expected CloudBase > 400 ft AGL from Temp-Dew spread
Ceiling900 ft
Temp19°C (ISA +5)
Dew Point18°C (94% RH)
AAT18.6°C
QNH1017 hPa
Density Alt1,017 ft
Elevation331 ft
Report Wrong Elevation
Raw Report
KPOE 191158Z AUTO 17009KT 10SM OVC009 19/18 A3004 RMK AO2 SLP173
T01930179 10195 20189 52006=

Extra information for KPOE:More info

Metar Taf Metar & Taf Last 4 Metars F.Rules Stats Wind Profile Meteogram Temp Stats Airport Information Weather charts Add Link Nearby VenuesMetar ALERT Operation Metar Decoded Social comments

AIRNAV info for KPOE